Time;durP1;ratioP1;P1;durP2;ratioP2;P2;SDS_P1;SDS_P2;PMS_P1;PMS_P2;Temp;Humidity;BMP_temperature;BMP_pressure;BME280_temperature;BME280_humidity;BME280_pressure;Samples;Min_cycle;Max_cycle;Signal;HPM_P1;HPM_P2
2022/03/22 00:00:03;;;;;;;54.88;33.85;;;;;;;10.63;58.90;102940.50;5032920;28;20068;-62
2022/03/22 00:02:28;;;;;;;47.78;34.08;;;;;;;10.65;59.17;102954.16;5033046;28;20038;-62
2022/03/22 00:04:53;;;;;;;50.90;34.33;;;;;;;10.59;59.21;102950.28;5032856;28;20033;-62
2022/03/22 00:07:19;;;;;;;48.97;35.00;;;;;;;10.53;58.72;102951.97;5033344;28;20040;-62
2022/03/22 00:09:44;;;;;;;51.92;34.75;;;;;;;10.53;59.10;102957.53;5030168;28;20078;-62
2022/03/22 00:12:10;;;;;;;48.78;35.78;;;;;;;10.51;59.52;102956.84;5032628;28;20029;-62
2022/03/22 00:14:35;;;;;;;49.92;35.35;;;;;;;10.51;59.31;102954.06;5032186;28;20049;-62
2022/03/22 00:17:03;;;;;;;50.63;35.42;;;;;;;10.48;59.73;102948.06;5031819;28;20524;-62
2022/03/22 00:19:28;;;;;;;47.70;35.30;;;;;;;10.43;59.39;102954.22;5033030;28;20428;-62
2022/03/22 00:21:54;;;;;;;50.50;33.78;;;;;;;10.44;59.63;102955.06;5033434;28;20029;-62
2022/03/22 00:24:19;;;;;;;47.88;34.95;;;;;;;10.39;59.27;102950.13;5031737;28;20029;-62
2022/03/22 00:26:44;;;;;;;52.45;35.55;;;;;;;10.36;59.07;102955.22;5032314;28;20045;-62
2022/03/22 00:29:09;;;;;;;50.10;34.50;;;;;;;10.34;59.53;102947.09;5031979;28;20164;-62
2022/03/22 00:31:35;;;;;;;50.72;35.85;;;;;;;10.32;59.56;102950.06;5031786;28;20052;-62
2022/03/22 00:34:00;;;;;;;55.38;35.70;;;;;;;10.30;59.17;102959.66;5028758;28;20026;-62
2022/03/22 00:36:25;;;;;;;54.72;35.67;;;;;;;10.26;59.37;102944.47;5031534;28;20037;-62
2022/03/22 00:38:51;;;;;;;49.72;34.97;;;;;;;10.25;59.88;102953.84;5031210;28;20456;-62
2022/03/22 00:41:19;;;;;;;50.50;35.78;;;;;;;10.25;60.18;102960.25;5032006;28;20029;-62
2022/03/22 00:43:44;;;;;;;52.95;34.42;;;;;;;10.22;59.36;102957.00;5032204;28;20200;-62
2022/03/22 00:46:10;;;;;;;47.10;33.63;;;;;;;10.17;59.06;102957.56;5029979;28;20163;-62
2022/03/22 00:48:35;;;;;;;48.78;34.60;;;;;;;10.18;59.76;102969.53;5032266;28;20056;-62
2022/03/22 00:51:01;;;;;;;51.50;35.90;;;;;;;10.15;59.46;102958.84;5032392;28;20033;-62
2022/03/22 00:53:26;;;;;;;48.47;34.60;;;;;;;10.11;59.70;102954.75;5030618;28;20539;-62
2022/03/22 00:55:52;;;;;;;51.47;34.70;;;;;;;10.17;59.53;102960.34;5031907;28;20037;-62
2022/03/22 00:58:18;;;;;;;44.03;33.00;;;;;;;10.10;59.53;102962.22;5030976;28;20037;-62
2022/03/22 01:00:43;;;;;;;56.33;35.13;;;;;;;10.04;59.40;102963.88;5028743;28;20496;-62
2022/03/22 01:03:09;;;;;;;48.15;34.70;;;;;;;10.03;59.80;102962.16;5021098;28;20030;-62
2022/03/22 01:05:36;;;;;;;49.60;34.80;;;;;;;10.05;59.88;102960.03;5028901;28;20033;-62
2022/03/22 01:08:05;;;;;;;45.92;32.65;;;;;;;9.99;59.95;102960.84;5028820;28;20082;-62
2022/03/22 01:10:35;;;;;;;49.55;34.42;;;;;;;10.01;59.38;102958.72;5025015;28;20124;-62
2022/03/22 01:13:01;;;;;;;48.28;32.70;;;;;;;9.95;59.88;102962.28;5030647;28;20139;-62
2022/03/22 01:15:39;;;;;;;50.75;34.03;;;;;;;10.00;60.30;102968.09;5032384;28;20029;-62
2022/03/22 01:18:07;;;;;;;46.85;33.92;;;;;;;9.98;60.02;102961.91;5015039;28;20515;-62
2022/03/22 01:20:34;;;;;;;43.95;32.85;;;;;;;9.95;59.95;102966.97;5027643;28;20034;-62
2022/03/22 01:23:02;;;;;;;48.90;33.28;;;;;;;9.93;59.95;102966.31;5032085;28;20026;-62
2022/03/22 01:25:28;;;;;;;46.92;32.45;;;;;;;9.93;59.84;102966.31;5031846;28;20384;-62
2022/03/22 01:27:54;;;;;;;48.78;34.28;;;;;;;9.91;59.80;102963.75;5029376;28;20118;-62
2022/03/22 01:30:21;;;;;;;44.05;31.75;;;;;;;9.91;60.04;102971.22;5022769;28;20044;-62
2022/03/22 01:32:53;;;;;;;43.38;32.10;;;;;;;9.87;59.82;102965.19;5031688;28;20078;-61
2022/03/22 01:35:19;;;;;;;;;;;;;;;10.18;58.52;102969.53;5030360;28;20026;-62
2022/03/22 01:37:49;;;;;;;46.38;32.42;;;;;;;9.98;59.86;102966.56;5031416;28;19941;-62
2022/03/22 01:40:16;;;;;;;46.00;32.75;;;;;;;9.91;59.95;102974.84;5029724;28;20064;-62
2022/03/22 01:42:42;;;;;;;44.30;32.70;;;;;;;9.91;59.49;102974.84;5030030;28;20049;-62
2022/03/22 01:45:09;;;;;;;47.40;31.40;;;;;;;9.96;59.84;102965.91;5030466;28;20033;-62
2022/03/22 01:47:36;;;;;;;42.22;31.27;;;;;;;9.95;59.87;102962.28;5030123;28;20157;-62
2022/03/22 01:50:03;;;;;;;43.58;31.00;;;;;;;9.98;59.74;102969.34;5030221;28;20036;-61
2022/03/22 01:52:32;;;;;;;43.38;30.27;;;;;;;9.97;60.09;102962.06;5031122;28;20163;-62
2022/03/22 01:54:57;;;;;;;43.60;31.33;;;;;;;9.94;60.15;102959.69;5029050;28;20116;-62
2022/03/22 01:57:24;;;;;;;43.53;30.52;;;;;;;10.02;59.39;102973.44;5031171;28;20180;-62
2022/03/22 01:59:50;;;;;;;42.65;30.20;;;;;;;9.99;59.70;102965.53;5013528;28;20029;-62
2022/03/22 02:07:48;;;;;;;42.40;29.75;;;;;;;9.93;59.66;102958.84;5030189;28;20044;-62
2022/03/22 02:10:14;;;;;;;41.13;29.90;;;;;;;9.88;60.03;102958.59;5029027;28;20091;-62
2022/03/22 02:12:41;;;;;;;40.35;29.75;;;;;;;9.84;59.76;102952.56;5030114;28;20489;-62
2022/03/22 02:15:07;;;;;;;40.85;29.00;;;;;;;9.84;60.16;102958.13;5030616;28;20546;-62
2022/03/22 02:17:34;;;;;;;41.03;28.83;;;;;;;9.82;59.95;102951.03;5026830;28;20037;-62
2022/03/22 02:20:00;;;;;;;39.70;28.58;;;;;;;9.77;59.89;102942.44;5025366;28;20029;-62
2022/03/22 02:22:34;;;;;;;38.55;27.92;;;;;;;9.73;59.92;102949.44;5029875;28;20476;-62
2022/03/22 02:25:01;;;;;;;37.28;28.17;;;;;;;9.69;60.07;102948.97;5029260;28;20060;-62
2022/03/22 02:27:28;;;;;;;42.50;27.90;;;;;;;9.65;60.46;102947.66;5029359;28;20036;-62
2022/03/22 02:29:53;;;;;;;37.53;28.70;;;;;;;9.63;60.02;102951.66;5029645;28;20108;-62
2022/03/22 02:32:29;;;;;;;43.28;28.63;;;;;;;9.61;60.00;102956.56;5029470;28;20116;-62
2022/03/22 02:34:54;;;;;;;40.42;28.27;;;;;;;9.59;59.86;102949.31;5026787;28;20029;-62
2022/03/22 02:37:19;;;;;;;38.60;27.90;;;;;;;9.57;59.70;102947.78;5022100;28;20076;-62
2022/03/22 02:39:44;;;;;;;40.20;28.38;;;;;;;9.55;60.29;102949.91;5028643;28;20028;-62
2022/03/22 02:42:10;;;;;;;40.80;28.15;;;;;;;9.52;60.52;102944.75;5030214;28;20451;-62
2022/03/22 02:44:35;;;;;;;36.97;26.83;;;;;;;9.53;59.71;102947.31;5029430;28;20052;-63
2022/03/22 02:47:00;;;;;;;35.92;26.50;;;;;;;9.48;59.88;102947.03;5025759;28;20034;-62
2022/03/22 02:49:26;;;;;;;37.55;27.77;;;;;;;9.47;60.17;102950.88;5022209;28;20048;-62
2022/03/22 02:51:51;;;;;;;35.67;25.90;;;;;;;9.47;59.81;102952.75;5028067;28;20037;-62
2022/03/22 02:54:16;;;;;;;38.03;27.52;;;;;;;9.42;60.23;102953.34;5024216;28;20032;-62
2022/03/22 02:56:41;;;;;;;35.30;26.48;;;;;;;9.39;59.77;102950.97;5028001;28;20076;-62
2022/03/22 02:59:07;;;;;;;33.75;26.55;;;;;;;9.33;59.97;102955.38;5029318;28;20484;-62
2022/03/22 03:01:32;;;;;;;33.95;25.35;;;;;;;9.32;60.23;102956.44;5030093;28;20088;-62
2022/03/22 03:04:00;;;;;;;35.00;26.33;;;;;;;9.30;59.96;102949.34;5029008;28;20033;-62
2022/03/22 03:06:28;;;;;;;34.08;25.50;;;;;;;9.22;60.06;102961.41;5029543;28;20040;-62
2022/03/22 03:08:55;;;;;;;37.42;26.17;;;;;;;9.19;60.14;102953.47;5029860;28;20030;-62
2022/03/22 03:11:20;;;;;;;35.83;25.95;;;;;;;9.19;60.67;102964.56;5029404;28;20443;-62
2022/03/22 03:16:31;;;;;;;36.42;26.83;;;;;;;9.13;60.44;102959.81;5007486;28;20120;-62
2022/03/22 03:18:57;;;;;;;35.78;26.10;;;;;;;9.10;60.53;102958.25;5034005;28;20104;-62
2022/03/22 03:21:22;;;;;;;37.00;26.70;;;;;;;9.08;60.27;102957.63;5031259;28;20044;-62
2022/03/22 03:23:47;;;;;;;36.47;26.45;;;;;;;9.10;59.77;102965.72;5033197;28;20472;-62
2022/03/22 03:26:12;;;;;;;31.95;24.10;;;;;;;9.08;60.08;102957.63;5033820;28;20040;-61
2022/03/22 03:28:38;;;;;;;36.08;26.30;;;;;;;9.07;59.93;102964.19;5032069;28;20037;-62
2022/03/22 03:31:03;;;;;;;36.80;26.63;;;;;;;9.01;60.66;102959.41;5033152;28;20030;-62
2022/03/22 03:33:28;;;;;;;33.88;25.38;;;;;;;9.02;59.96;102963.06;5033266;28;20072;-62
2022/03/22 03:35:54;;;;;;;33.72;24.75;;;;;;;8.98;60.65;102956.16;5032520;28;20041;-62
2022/03/22 03:38:19;;;;;;;38.28;25.85;;;;;;;9.06;59.94;102965.25;5034298;28;20104;-62
2022/03/22 03:43:28;;;;;;;37.25;26.23;;;;;;;8.99;59.99;102969.81;5028009;28;20052;-62
2022/03/22 03:48:40;;;;;;;37.50;27.67;;;;;;;8.88;60.92;102967.53;5031714;28;20060;-62
2022/03/22 03:51:08;;;;;;;36.10;25.42;;;;;;;8.88;60.90;102978.59;5029399;28;20428;-62
2022/03/22 03:53:34;;;;;;;32.90;24.80;;;;;;;8.86;60.45;102977.94;5028194;28;20029;-62
2022/03/22 03:55:59;;;;;;;33.10;25.17;;;;;;;8.86;60.18;102975.19;5032383;28;20052;-62
2022/03/22 03:58:27;;;;;;;34.17;25.67;;;;;;;8.84;60.29;102975.38;5032486;28;20037;-62
2022/03/22 04:00:52;;;;;;;34.50;25.60;;;;;;;8.79;59.97;102985.28;5032401;28;20061;-62
2022/03/22 04:03:17;;;;;;;35.38;25.90;;;;;;;8.75;60.18;102987.56;5032016;28;20072;-62
2022/03/22 04:05:43;;;;;;;29.98;23.63;;;;;;;8.72;60.15;102981.53;5031999;28;20493;-62
2022/03/22 04:08:08;;;;;;;37.38;25.83;;;;;;;8.67;60.79;102986.78;5030080;28;20025;-62
2022/03/22 04:10:34;;;;;;;36.47;24.52;;;;;;;8.69;60.62;102990.25;5014293;28;20733;-62
2022/03/22 04:13:02;;;;;;;36.08;25.58;;;;;;;8.65;60.37;102983.38;5013459;28;20030;-62
2022/03/22 04:15:29;;;;;;;34.97;25.25;;;;;;;8.66;60.25;102985.94;5031320;28;20080;-62
2022/03/22 04:17:57;;;;;;;36.90;25.38;;;;;;;8.60;60.71;102993.06;5032199;28;20055;-62
2022/03/22 04:20:22;;;;;;;36.03;25.23;;;;;;;8.65;60.10;102995.31;5032422;28;20406;-62
2022/03/22 04:22:51;;;;;;;34.58;24.50;;;;;;;8.65;60.57;102988.91;5031315;28;20108;-62
2022/03/22 04:25:16;;;;;;;36.13;24.60;;;;;;;8.69;60.49;102991.09;5028633;28;20075;-62
2022/03/22 04:33:13;;;;;;;34.70;24.10;;;;;;;8.76;60.05;102992.09;5031834;28;20052;-62
2022/03/22 04:35:45;;;;;;;38.70;24.95;;;;;;;8.69;60.25;102991.09;5032214;28;20038;-62
2022/03/22 04:38:11;;;;;;;35.35;24.58;;;;;;;8.72;59.96;102989.84;5031056;28;20030;-61
2022/03/22 04:40:39;;;;;;;35.95;24.73;;;;;;;8.65;60.84;102983.38;5029994;28;20079;-62
2022/03/22 04:43:06;;;;;;;31.27;23.50;;;;;;;8.62;60.53;102984.59;5032826;28;20014;-61
2022/03/22 04:45:32;;;;;;;36.20;24.35;;;;;;;8.53;60.91;102986.59;5031823;28;20037;-61
2022/03/22 04:47:57;;;;;;;31.13;23.08;;;;;;;8.52;60.79;102989.53;5032675;28;20029;-61
2022/03/22 04:50:22;;;;;;;31.35;23.55;;;;;;;8.48;60.77;102996.50;5024887;28;20120;-61
2022/03/22 04:58:16;;;;;;;34.08;24.08;;;;;;;8.42;61.07;103005.56;5032271;28;20091;-62
2022/03/22 05:00:41;;;;;;;33.63;23.75;;;;;;;8.38;61.49;103005.06;5031032;28;20046;-63
2022/03/22 05:03:08;;;;;;;33.35;23.83;;;;;;;8.37;60.47;103011.66;5031348;28;20473;-62
2022/03/22 05:08:17;;;;;;;33.20;24.08;;;;;;;8.33;61.18;103011.13;5031241;28;20564;-62
2022/03/22 05:10:42;;;;;;;33.50;24.02;;;;;;;8.33;61.06;103013.91;5031278;28;20135;-62
2022/03/22 05:13:08;;;;;;;31.65;24.02;;;;;;;8.30;61.36;103014.25;5032042;28;20380;-62
2022/03/22 05:15:33;;;;;;;33.13;23.65;;;;;;;8.34;60.84;103017.50;5031114;28;20029;-62
2022/03/22 05:17:59;;;;;;;32.17;24.05;;;;;;;8.35;60.41;103013.69;5032216;28;20041;-62
2022/03/22 05:20:25;;;;;;;33.47;23.88;;;;;;;8.32;60.72;103017.69;5031524;28;20503;-62
2022/03/22 05:22:50;;;;;;;34.03;23.83;;;;;;;8.32;60.81;103027.91;5031290;28;20037;-62
2022/03/22 05:25:16;;;;;;;32.53;24.40;;;;;;;8.31;60.79;103023.41;5031371;28;20445;-62
2022/03/22 05:27:41;;;;;;;30.13;23.20;;;;;;;8.31;60.33;103017.88;5030804;28;20013;-62
2022/03/22 05:30:09;;;;;;;34.72;24.00;;;;;;;8.30;60.87;103030.84;5030189;28;20037;-62
2022/03/22 05:32:35;;;;;;;36.47;24.25;;;;;;;8.25;60.60;103032.44;5031842;28;20025;-62
2022/03/22 05:35:00;;;;;;;34.20;24.00;;;;;;;8.24;61.54;103033.50;5030115;28;20043;-62
2022/03/22 05:37:26;;;;;;;35.97;25.35;;;;;;;8.23;60.65;103035.41;5031186;28;20076;-62
2022/03/22 05:39:51;;;;;;;42.30;24.75;;;;;;;8.25;61.19;103041.63;5029641;28;20032;-61
2022/03/22 05:42:17;;;;;;;31.90;23.80;;;;;;;8.24;61.13;103036.25;5030420;28;20049;-62
2022/03/22 05:44:45;;;;;;;38.75;23.98;;;;;;;8.16;61.48;103037.19;5031200;28;20033;-62
2022/03/22 05:47:11;;;;;;;38.92;24.48;;;;;;;8.14;61.91;103041.19;5030101;28;20080;-62
2022/03/22 05:49:38;;;;;;;34.78;24.15;;;;;;;8.16;61.60;103048.25;5030590;28;20457;-61
2022/03/22 05:52:04;;;;;;;33.33;24.13;;;;;;;8.18;61.38;103039.78;5030630;28;20507;-62
2022/03/22 05:54:29;;;;;;;35.35;24.63;;;;;;;8.15;61.59;103031.84;5029629;28;20033;-62
2022/03/22 05:56:54;;;;;;;36.53;24.42;;;;;;;8.15;61.65;103031.84;5028860;28;20427;-62
2022/03/22 05:59:20;;;;;;;44.38;24.85;;;;;;;8.13;61.27;103029.25;5025322;28;20037;-62
2022/03/22 06:01:46;;;;;;;39.55;25.70;;;;;;;8.15;61.74;103037.38;5024136;28;20139;-62
2022/03/22 06:04:11;;;;;;;37.05;24.75;;;;;;;8.11;61.26;103048.81;5039736;28;20439;-61
2022/03/22 06:06:37;;;;;;;35.40;24.80;;;;;;;8.12;61.39;103039.44;5034105;28;20092;-62
2022/03/22 06:09:02;;;;;;;33.10;24.08;;;;;;;8.14;61.41;103047.59;5021602;28;20029;-61
2022/03/22 06:11:33;;;;;;;44.92;25.88;;;;;;;8.16;62.09;103050.16;5030219;28;20040;-61
2022/03/22 06:13:58;;;;;;;35.78;24.70;;;;;;;8.18;61.53;103048.94;5018313;28;20133;-62
2022/03/22 06:16:24;;;;;;;33.35;24.17;;;;;;;8.24;62.09;103045.41;5029367;28;20123;-62
2022/03/22 06:18:49;;;;;;;34.03;25.50;;;;;;;8.31;61.80;103048.31;5032953;28;20033;-62
2022/03/22 06:21:15;;;;;;;34.80;24.30;;;;;;;8.36;61.53;103049.47;5036438;28;20038;-62
2022/03/22 06:23:43;;;;;;;34.22;25.35;;;;;;;8.42;61.58;103056.22;5029438;28;20029;-62
2022/03/22 06:26:08;;;;;;;36.08;24.40;;;;;;;8.52;61.53;103056.81;5027617;28;20491;-63
2022/03/22 06:28:39;;;;;;;38.85;25.27;;;;;;;8.64;61.55;103046.16;5030253;28;20042;-62
2022/03/22 06:31:05;;;;;;;43.50;26.95;;;;;;;8.60;62.61;103055.88;5030185;28;20041;-63
2022/03/22 06:33:30;;;;;;;35.30;26.05;;;;;;;8.75;61.98;103045.72;5030282;28;20079;-62
2022/03/22 06:35:56;;;;;;;39.28;25.52;;;;;;;8.77;61.43;103048.31;5031248;28;20018;-62
2022/03/22 06:38:22;;;;;;;40.83;26.88;;;;;;;8.82;61.62;103051.38;5028989;28;20029;-62
2022/03/22 06:40:49;;;;;;;37.10;26.52;;;;;;;8.89;61.44;103052.34;5030586;28;20103;-62
2022/03/22 06:43:18;;;;;;;35.38;25.85;;;;;;;8.96;62.26;103061.63;5029264;28;20037;-62
2022/03/22 06:45:45;;;;;;;40.03;27.70;;;;;;;9.00;61.90;103053.78;5027241;28;20021;-62
2022/03/22 06:48:11;;;;;;;36.67;25.77;;;;;;;9.06;61.46;103058.56;5029757;28;20033;-62
2022/03/22 06:50:38;;;;;;;36.92;27.25;;;;;;;9.14;61.44;103063.16;5028513;28;20030;-62
2022/03/22 06:53:05;;;;;;;38.83;27.35;;;;;;;9.18;61.50;103061.75;5033345;28;20473;-62
2022/03/22 06:55:32;;;;;;;37.15;26.77;;;;;;;9.24;61.38;103066.53;5033875;28;20503;-62
2022/03/22 06:57:58;;;;;;;45.08;28.15;;;;;;;9.27;61.47;103066.13;5031098;28;20033;-62
2022/03/22 07:00:27;;;;;;;37.05;27.13;;;;;;;9.32;61.00;103058.97;5030825;28;20041;-62
2022/03/22 07:02:53;;;;;;;38.95;27.67;;;;;;;9.41;61.20;103069.97;5031983;28;20025;-62
2022/03/22 07:05:18;;;;;;;35.80;25.20;;;;;;;9.46;60.54;103062.78;5032158;28;20032;-62
2022/03/22 07:07:47;;;;;;;38.33;27.20;;;;;;;9.51;60.61;103073.28;5033346;28;20535;-62
2022/03/22 07:10:14;;;;;;;40.60;28.88;;;;;;;9.54;60.72;103073.78;5031812;28;20045;-60
2022/03/22 07:12:53;;;;;;;45.03;26.75;;;;;;;9.59;60.52;103076.84;5027775;28;20029;-60
2022/03/22 07:15:26;;;;;;;36.85;25.90;;;;;;;9.65;60.40;103072.44;5032771;28;20045;-61
2022/03/22 07:17:52;;;;;;;36.83;26.40;;;;;;;9.73;59.70;103077.88;5030198;28;20021;-62
2022/03/22 07:20:19;;;;;;;39.38;26.75;;;;;;;9.76;60.10;103071.09;5030676;28;20029;-62
2022/03/22 07:22:45;;;;;;;40.28;27.95;;;;;;;9.83;59.92;103072.03;5030696;28;20112;-62
2022/03/22 07:25:11;;;;;;;44.78;27.55;;;;;;;9.92;59.82;103075.56;5032971;28;20132;-62
2022/03/22 07:27:36;;;;;;;40.75;26.70;;;;;;;9.99;59.73;103074.59;5028439;28;20033;-62
2022/03/22 07:30:11;;;;;;;39.63;28.02;;;;;;;10.05;59.08;103073.78;5019954;28;20080;-61
2022/03/22 07:32:37;;;;;;;44.13;27.23;;;;;;;10.13;58.52;103077.50;5024865;28;20040;-62
2022/03/22 07:35:03;;;;;;;39.85;27.65;;;;;;;10.19;58.47;103080.38;5024232;28;20028;-62
2022/03/22 07:37:28;;;;;;;37.47;27.50;;;;;;;10.28;58.58;103081.13;5026816;28;20029;-63
2022/03/22 07:39:56;;;;;;;40.70;28.27;;;;;;;10.37;57.83;103082.72;5023269;28;20041;-60
2022/03/22 07:42:24;;;;;;;38.35;27.30;;;;;;;10.44;57.99;103085.56;5027578;28;20044;-63
2022/03/22 07:44:49;;;;;;;43.10;26.83;;;;;;;10.53;57.06;103082.47;5012261;28;20392;-62
2022/03/22 07:47:18;;;;;;;42.10;27.80;;;;;;;10.62;56.90;103071.22;5018462;28;20033;-61
2022/03/22 07:55:18;;;;;;;34.17;26.08;;;;;;;10.90;56.02;103083.22;5027884;28;20127;-61
2022/03/22 07:57:44;;;;;;;39.55;27.40;;;;;;;10.99;55.42;103084.78;5030086;28;20029;-64
2022/03/22 08:00:09;;;;;;;39.15;27.15;;;;;;;11.09;55.46;103089.16;5027531;28;20574;-62
2022/03/22 08:02:36;;;;;;;38.15;26.48;;;;;;;11.19;54.78;103090.50;5024527;28;20029;-62
2022/03/22 08:05:05;;;;;;;38.03;26.10;;;;;;;11.33;54.47;103090.59;5031447;28;20068;-64
2022/03/22 08:07:30;;;;;;;43.88;27.10;;;;;;;11.47;54.46;103090.47;5029363;28;20083;-64
2022/03/22 08:09:59;;;;;;;39.78;28.25;;;;;;;11.61;53.82;103090.56;5029890;28;20033;-64
2022/03/22 08:12:24;;;;;;;37.40;27.17;;;;;;;11.76;53.16;103091.28;5029424;28;20037;-62
2022/03/22 08:14:49;;;;;;;38.25;25.70;;;;;;;11.89;52.60;103088.59;5027597;28;20041;-62
2022/03/22 08:17:15;;;;;;;36.45;25.38;;;;;;;12.01;52.36;103086.91;5027975;28;20045;-59
2022/03/22 08:19:40;;;;;;;42.55;25.70;;;;;;;12.17;52.51;103090.41;5029740;28;20461;-62
2022/03/22 08:22:05;;;;;;;37.35;26.70;;;;;;;12.34;51.50;103090.88;5031356;28;20034;-62
2022/03/22 08:24:31;;;;;;;38.25;25.25;;;;;;;12.44;51.31;103094.13;5031997;28;20089;-63
2022/03/22 08:26:56;;;;;;;39.28;25.48;;;;;;;12.61;50.78;103086.22;5029594;28;20044;-62
2022/03/22 08:29:22;;;;;;;37.20;25.38;;;;;;;12.70;49.81;103098.88;5031606;28;20025;-62
2022/03/22 08:31:47;;;;;;;37.45;25.92;;;;;;;12.77;49.77;103086.69;5030359;28;20747;-63
2022/03/22 08:34:21;;;;;;;39.60;26.88;;;;;;;12.92;49.49;103096.75;5031034;28;20111;-64
2022/03/22 08:36:47;;;;;;;35.30;24.92;;;;;;;13.05;49.28;103090.31;5030252;28;20052;-63
2022/03/22 08:39:12;;;;;;;37.00;25.17;;;;;;;13.13;48.75;103090.09;5030128;28;20075;-62
2022/03/22 08:41:40;;;;;;;40.55;25.52;;;;;;;13.31;48.48;103087.53;5030904;28;20032;-63
2022/03/22 08:44:05;;;;;;;41.05;25.67;;;;;;;13.43;48.46;103090.50;5030501;28;20078;-63
2022/03/22 08:46:31;;;;;;;39.35;24.65;;;;;;;13.56;48.38;103089.59;5024804;28;20022;-63
2022/03/22 08:48:56;;;;;;;35.85;24.48;;;;;;;13.70;48.17;103089.34;5030897;28;20033;-62
2022/03/22 08:51:24;;;;;;;36.13;24.83;;;;;;;13.80;46.40;103091.72;5026356;28;20150;-62
2022/03/22 08:53:50;;;;;;;37.83;25.77;;;;;;;13.92;46.47;103086.28;5021823;28;20098;-62
2022/03/22 08:56:15;;;;;;;36.35;24.55;;;;;;;13.97;45.99;103076.16;5028712;28;20026;-62
2022/03/22 08:58:44;;;;;;;40.13;26.25;;;;;;;14.15;46.20;103091.34;5027748;28;20389;-62
2022/03/22 09:01:09;;;;;;;39.53;24.95;;;;;;;14.27;45.18;103092.34;5008593;28;20143;-61
2022/03/22 09:03:35;;;;;;;39.08;26.20;;;;;;;14.35;45.29;103086.50;5009999;28;20067;-61
2022/03/22 09:06:11;;;;;;;39.63;26.25;;;;;;;14.46;44.63;103080.19;5021942;28;20022;-61
2022/03/22 09:08:38;;;;;;;38.42;25.08;;;;;;;14.54;43.71;103084.69;5026726;28;20582;-61
2022/03/22 09:11:04;;;;;;;18.80;12.40;;;;;;;15.12;52.49;103087.22;5028230;28;20043;-62
2022/03/22 09:13:33;;;;;;;36.45;24.95;;;;;;;15.05;43.59;103086.44;5028410;28;20025;-62
2022/03/22 09:15:59;;;;;;;38.85;25.17;;;;;;;15.07;43.20;103083.41;5041460;28;20045;-61
2022/03/22 09:18:26;;;;;;;36.10;25.55;;;;;;;15.19;43.70;103073.19;5026118;28;20033;-61
2022/03/22 09:20:52;;;;;;;67.50;27.65;;;;;;;15.27;43.63;103078.47;5028037;28;20029;-63
2022/03/22 09:23:17;;;;;;;38.67;26.23;;;;;;;15.30;42.95;103085.56;5028935;28;20392;-62
2022/03/22 09:25:43;;;;;;;37.47;26.75;;;;;;;15.22;42.01;103072.72;5028476;28;20045;-62
2022/03/22 09:28:12;;;;;;;40.42;26.52;;;;;;;15.24;42.01;103076.13;5028295;28;20171;-61
2022/03/22 09:30:38;;;;;;;38.90;26.48;;;;;;;15.26;42.62;103076.78;5026608;28;20438;-61
2022/03/22 09:33:05;;;;;;;39.95;26.05;;;;;;;15.32;41.53;103075.81;5019353;28;20029;-61
2022/03/22 09:35:31;;;;;;;35.15;25.52;;;;;;;15.32;41.21;103070.22;5020760;28;20029;-61
2022/03/22 09:37:57;;;;;;;41.17;25.23;;;;;;;15.49;41.23;103075.25;5025049;28;20033;-61
2022/03/22 09:40:25;;;;;;;38.90;25.98;;;;;;;15.38;40.82;103074.06;5021174;28;20032;-61
2022/03/22 09:42:51;;;;;;;40.00;26.42;;;;;;;15.44;41.06;103074.00;5028966;28;20369;-63
2022/03/22 09:45:21;;;;;;;37.88;25.95;;;;;;;15.50;40.87;103075.00;5027903;28;20132;-61
2022/03/22 09:47:47;;;;;;;40.42;26.33;;;;;;;15.62;40.95;103075.09;5025985;28;20037;-61
2022/03/22 09:50:14;;;;;;;38.22;25.05;;;;;;;15.68;41.21;103071.41;5030881;28;20381;-61
2022/03/22 09:52:40;;;;;;;38.00;24.90;;;;;;;15.74;40.82;103073.25;5027383;28;20426;-61
2022/03/22 09:55:08;;;;;;;37.75;25.83;;;;;;;15.84;40.79;103072.72;5020600;28;20543;-61
2022/03/22 09:57:36;;;;;;;35.28;25.48;;;;;;;15.88;40.19;103072.00;5026184;28;20061;-62
2022/03/22 10:00:03;;;;;;;40.88;24.83;;;;;;;15.94;39.89;103068.25;5023804;28;20116;-61
2022/03/22 10:02:30;;;;;;;37.58;25.40;;;;;;;16.03;39.72;103067.94;5038883;28;20040;-61
2022/03/22 10:04:56;;;;;;;41.00;26.00;;;;;;;16.10;39.36;103065.91;5036223;28;20052;-61
2022/03/22 10:07:23;;;;;;;41.17;26.05;;;;;;;16.22;39.87;103064.00;5043110;28;20048;-61
2022/03/22 10:09:54;;;;;;;37.95;26.50;;;;;;;16.15;39.23;103063.22;5044664;28;20464;-62
2022/03/22 10:12:37;;;;;;;39.03;26.27;;;;;;;16.15;39.85;103066.03;5043868;28;20029;-63
2022/03/22 10:15:15;;;;;;;37.08;25.88;;;;;;;16.19;39.28;103059.75;5038532;28;20461;-61
2022/03/22 10:17:43;;;;;;;40.95;26.10;;;;;;;16.22;38.76;103052.78;5043480;28;20059;-62
2022/03/22 10:20:09;;;;;;;36.65;24.92;;;;;;;16.26;38.31;103062.44;5046387;28;20082;-61
2022/03/22 10:22:37;;;;;;;39.28;26.27;;;;;;;16.36;38.48;103053.47;5044875;28;20386;-61
2022/03/22 10:25:05;;;;;;;38.88;26.20;;;;;;;16.44;39.18;103053.97;5036746;28;20025;-61
2022/03/22 10:27:33;;;;;;;38.45;25.08;;;;;;;16.56;38.42;103053.16;5049396;28;20115;-61
2022/03/22 10:30:03;;;;;;;40.15;26.60;;;;;;;16.64;38.19;103055.59;5040714;28;20136;-61
2022/03/22 10:32:43;;;;;;;38.50;24.35;;;;;;;16.65;38.98;103052.56;5042917;28;20028;-61
2022/03/22 10:35:21;;;;;;;39.05;26.15;;;;;;;16.78;38.46;103048.72;5043146;28;20024;-62
2022/03/22 10:37:53;;;;;;;38.53;26.40;;;;;;;16.86;37.95;103047.53;5047941;28;20114;-61
2022/03/22 10:40:33;;;;;;;38.22;25.42;;;;;;;16.88;38.26;103046.16;5049254;28;20095;-61
2022/03/22 10:43:01;;;;;;;41.47;25.17;;;;;;;16.91;37.01;103045.69;5031955;28;20104;-61
2022/03/22 10:45:30;;;;;;;35.53;23.70;;;;;;;16.95;37.71;103040.44;5047440;28;20364;-61
2022/03/22 10:47:57;;;;;;;34.85;24.00;;;;;;;16.99;37.18;103044.47;5048992;28;20928;-62
2022/03/22 10:50:24;;;;;;;40.95;24.90;;;;;;;16.96;36.98;103041.28;5045228;28;20060;-61
2022/03/22 10:52:59;;;;;;;40.00;24.83;;;;;;;16.99;36.98;103040.81;5040823;28;20037;-63
2022/03/22 10:55:29;;;;;;;33.05;23.25;;;;;;;17.09;37.32;103033.47;5043267;28;20069;-62
2022/03/22 10:57:59;;;;;;;33.30;23.63;;;;;;;17.15;36.65;103038.13;5032475;28;20543;-61
2022/03/22 11:00:26;;;;;;;37.65;24.65;;;;;;;17.20;36.58;103042.16;5034161;28;20053;-63
2022/03/22 11:02:54;;;;;;;36.47;23.98;;;;;;;17.25;36.50;103034.72;5049179;28;20041;-61
2022/03/22 11:05:22;;;;;;;35.15;24.45;;;;;;;17.30;36.33;103032.03;5042839;28;20170;-61
2022/03/22 11:07:50;;;;;;;35.47;23.23;;;;;;;17.37;36.62;103032.75;5052455;28;20024;-61
2022/03/22 11:10:29;;;;;;;37.75;23.75;;;;;;;17.42;36.90;103032.88;5039194;28;20059;-61
2022/03/22 11:12:58;;;;;;;33.42;22.27;;;;;;;17.48;36.60;103027.34;5043583;28;20074;-62
2022/03/22 11:15:28;;;;;;;39.97;23.70;;;;;;;17.57;36.64;103034.31;5042060;28;20025;-60
2022/03/22 11:17:58;;;;;;;32.50;21.75;;;;;;;17.64;35.82;103027.47;5044866;28;20120;-60
2022/03/22 11:20:25;;;;;;;34.15;21.08;;;;;;;17.61;35.44;103027.09;5047650;28;20037;-61
2022/03/22 11:22:56;;;;;;;34.30;21.55;;;;;;;17.63;35.66;103033.31;5049787;28;20025;-62
2022/03/22 11:25:35;;;;;;;31.85;21.38;;;;;;;17.59;36.23;103026.47;5047403;28;20029;-62
2022/03/22 11:28:17;;;;;;;30.42;19.80;;;;;;;17.63;37.10;103020.13;5045657;28;20025;-62
2022/03/22 11:30:43;;;;;;;38.92;21.38;;;;;;;17.65;35.64;103019.88;5048568;28;20037;-62
2022/03/22 11:36:00;;;;;;;32.38;20.33;;;;;;;17.75;35.87;103016.47;5033765;28;20075;-61
2022/03/22 11:38:42;;;;;;;31.73;20.55;;;;;;;17.75;36.35;103016.47;5050109;28;20025;-61
2022/03/22 11:44:12;;;;;;;31.23;18.63;;;;;;;17.80;34.63;103014.63;5044033;28;20031;-62
2022/03/22 11:46:38;;;;;;;31.05;19.90;;;;;;;17.81;34.73;103010.72;5049413;28;20111;-62
2022/03/22 11:49:15;;;;;;;30.30;18.38;;;;;;;17.90;35.05;103006.38;5050798;28;20602;-63
2022/03/22 11:51:57;;;;;;;30.42;18.63;;;;;;;17.99;35.53;103004.03;5049467;28;21416;-61